createdAt,value
2017-06-29T00:00:38.059Z,11.43
2017-06-29T00:03:07.695Z,9.02
2017-06-29T00:05:36.585Z,12.48
2017-06-29T00:08:05.494Z,11.65
2017-06-29T00:10:34.401Z,10.55
2017-06-29T00:13:03.287Z,9.63
2017-06-29T00:15:32.193Z,11.70
2017-06-29T00:18:01.082Z,9.60
2017-06-29T00:20:29.985Z,19.23
2017-06-29T00:22:59.634Z,10.25
2017-06-29T00:25:28.539Z,10.57
2017-06-29T00:27:57.433Z,14.65
2017-06-29T00:30:26.327Z,11.15
2017-06-29T00:32:55.217Z,9.73
2017-06-29T00:35:24.129Z,15.13
2017-06-29T00:37:53.019Z,11.07
2017-06-29T00:40:21.918Z,13.25
2017-06-29T00:42:50.811Z,10.85
2017-06-29T00:45:19.701Z,11.63
2017-06-29T00:47:48.592Z,12.23
2017-06-29T00:50:17.510Z,12.50
2017-06-29T00:52:46.436Z,11.52
2017-06-29T00:55:15.434Z,13.95
2017-06-29T00:57:44.339Z,12.32
2017-06-29T01:00:13.239Z,13.88
2017-06-29T01:02:42.141Z,11.50
2017-06-29T01:05:11.013Z,15.50
2017-06-29T01:07:39.907Z,13.55
2017-06-29T01:10:08.812Z,17.95
2017-06-29T01:12:37.776Z,16.55
2017-06-29T01:15:06.682Z,15.95
2017-06-29T01:17:35.583Z,15.77
2017-06-29T01:20:04.489Z,16.92
2017-06-29T01:22:33.393Z,19.15
2017-06-29T01:25:02.299Z,17.90
2017-06-29T01:27:31.956Z,14.10
2017-06-29T01:30:00.847Z,17.42
2017-06-29T01:32:29.755Z,15.85
2017-06-29T01:34:58.644Z,16.02
2017-06-29T01:37:27.550Z,16.65
2017-06-29T01:39:56.447Z,23.23
2017-06-29T01:42:25.353Z,15.65
2017-06-29T01:44:55.021Z,17.83
2017-06-29T01:47:23.913Z,18.65
2017-06-29T01:49:52.825Z,16.62
2017-06-29T01:52:21.782Z,18.02
2017-06-29T01:54:50.694Z,18.20
2017-06-29T01:57:19.607Z,17.90
2017-06-29T01:59:48.500Z,17.45
2017-06-29T02:02:17.392Z,16.25
2017-06-29T02:04:46.294Z,15.48
2017-06-29T02:07:15.209Z,17.08
2017-06-29T02:09:44.120Z,15.15
2017-06-29T02:12:13.016Z,18.98
2017-06-29T02:14:41.921Z,16.45
2017-06-29T02:17:10.826Z,17.02
2017-06-29T02:19:39.746Z,13.02
2017-06-29T02:22:08.640Z,15.18
2017-06-29T02:24:38.301Z,14.40
2017-06-29T02:27:07.202Z,11.23
2017-06-29T02:29:36.096Z,11.88
2017-06-29T02:32:04.997Z,15.65
2017-06-29T02:34:33.902Z,12.37
2017-06-29T02:37:02.809Z,13.95
2017-06-29T02:39:31.708Z,13.07
2017-06-29T02:42:01.368Z,15.90
2017-06-29T02:44:30.273Z,16.00
2017-06-29T02:46:59.181Z,16.75
2017-06-29T02:49:28.071Z,16.87
2017-06-29T02:51:56.978Z,18.70
2017-06-29T02:54:26.654Z,17.85
2017-06-29T02:56:55.561Z,15.20
2017-06-29T02:59:24.474Z,14.87
2017-06-29T03:01:53.379Z,22.25
2017-06-29T03:04:22.263Z,26.45
2017-06-29T03:06:51.151Z,20.30
2017-06-29T03:09:20.040Z,22.83
2017-06-29T03:11:48.936Z,28.90
2017-06-29T03:14:18.595Z,42.97
2017-06-29T03:16:47.500Z,49.58
2017-06-29T03:19:16.405Z,26.92
2017-06-29T03:21:45.267Z,20.67
2017-06-29T03:24:14.153Z,22.90
2017-06-29T03:26:43.054Z,20.48
2017-06-29T03:29:11.951Z,25.67
2017-06-29T03:31:40.853Z,24.87
2017-06-29T03:34:09.748Z,29.48
2017-06-29T03:36:38.648Z,35.75
2017-06-29T03:39:07.559Z,35.42
2017-06-29T03:41:37.227Z,35.92
2017-06-29T03:44:06.116Z,31.83
2017-06-29T03:46:34.989Z,41.55
2017-06-29T03:49:03.888Z,29.80
2017-06-29T03:51:32.781Z,27.23
2017-06-29T03:54:01.685Z,25.83
2017-06-29T03:56:30.567Z,26.10
2017-06-29T03:58:59.461Z,26.27
2017-06-29T04:01:28.352Z,24.73
2017-06-29T04:03:57.248Z,30.90
2017-06-29T04:06:26.144Z,29.33
2017-06-29T04:08:55.045Z,32.05
2017-06-29T04:11:23.949Z,30.83
2017-06-29T04:13:52.852Z,29.85
2017-06-29T04:16:21.757Z,27.90
2017-06-29T04:18:51.421Z,32.25
2017-06-29T04:21:20.325Z,33.85
2017-06-29T04:23:49.223Z,30.85
2017-06-29T04:26:18.119Z,33.55
2017-06-29T04:28:47.015Z,30.88
2017-06-29T04:31:15.971Z,28.98
2017-06-29T04:33:44.873Z,29.15
2017-06-29T04:36:13.768Z,27.50
2017-06-29T04:38:42.668Z,28.65
2017-06-29T04:41:11.573Z,30.05
2017-06-29T04:43:40.464Z,26.15
2017-06-29T04:46:09.356Z,24.60
2017-06-29T04:48:38.264Z,24.12
2017-06-29T04:51:07.120Z,27.92
2017-06-29T04:53:36.028Z,28.52
2017-06-29T04:56:04.932Z,27.50
2017-06-29T04:58:33.833Z,27.65
2017-06-29T05:01:02.739Z,25.65
2017-06-29T05:03:32.391Z,24.08
2017-06-29T05:06:01.278Z,20.48
2017-06-29T05:08:30.164Z,22.58
2017-06-29T05:10:59.157Z,24.08
2017-06-29T05:13:28.059Z,18.35
2017-06-29T05:15:56.986Z,17.42
2017-06-29T05:18:25.875Z,19.00
2017-06-29T05:20:54.777Z,18.17
2017-06-29T05:23:23.479Z,21.30
2017-06-29T05:25:53.140Z,26.73
2017-06-29T05:28:22.039Z,23.23
2017-06-29T05:30:50.945Z,23.30
2017-06-29T05:33:19.849Z,25.37
2017-06-29T05:35:48.745Z,31.67
2017-06-29T05:38:17.635Z,28.65
2017-06-29T05:40:46.534Z,32.95
2017-06-29T05:43:16.205Z,38.13
2017-06-29T05:45:45.068Z,31.20
2017-06-29T05:48:13.956Z,26.50
2017-06-29T05:50:42.847Z,31.50
2017-06-29T05:53:11.753Z,27.25
2017-06-29T05:55:40.653Z,34.20
2017-06-29T05:58:09.557Z,32.20
2017-06-29T06:00:38.446Z,39.40
2017-06-29T06:03:07.351Z,36.00
2017-06-29T06:05:36.255Z,44.97
2017-06-29T06:08:05.154Z,40.67
2017-06-29T06:10:34.044Z,36.53
2017-06-29T06:13:02.930Z,39.50
2017-06-29T06:15:31.830Z,41.95
2017-06-29T06:18:00.719Z,39.25
2017-06-29T06:20:29.624Z,54.78
2017-06-29T06:22:59.092Z,37.47
2017-06-29T06:25:27.992Z,38.00
2017-06-29T06:27:56.893Z,35.28
2017-06-29T06:30:25.793Z,30.83
2017-06-29T06:32:54.676Z,36.22
2017-06-29T06:35:23.560Z,41.05
2017-06-29T06:37:52.454Z,35.28
2017-06-29T06:40:21.347Z,36.65
2017-06-29T06:42:50.230Z,33.67
2017-06-29T06:45:19.139Z,32.17
2017-06-29T06:47:48.028Z,36.10
2017-06-29T06:50:16.933Z,43.95
2017-06-29T06:52:45.835Z,39.38
2017-06-29T06:55:15.497Z,32.78
2017-06-29T06:57:44.404Z,36.35
2017-06-29T07:00:13.291Z,34.40
2017-06-29T07:02:42.189Z,35.92
2017-06-29T07:05:11.092Z,45.20
2017-06-29T07:07:39.786Z,34.08
2017-06-29T07:10:08.683Z,34.53
2017-06-29T07:12:37.597Z,38.67
2017-06-29T07:15:06.487Z,37.30
2017-06-29T07:17:35.396Z,32.47
2017-06-29T07:20:04.288Z,34.40
2017-06-29T07:22:33.175Z,37.88
2017-06-29T07:25:02.073Z,35.63
2017-06-29T07:27:31.071Z,31.33
2017-06-29T07:29:59.964Z,32.30
2017-06-29T07:32:28.862Z,29.42
2017-06-29T07:34:57.743Z,38.35
2017-06-29T07:37:26.626Z,34.60
2017-06-29T07:39:55.518Z,29.52
2017-06-29T07:42:24.420Z,30.08
2017-06-29T07:44:53.318Z,33.60
2017-06-29T07:47:22.227Z,32.28
2017-06-29T07:49:51.130Z,31.12
2017-06-29T07:52:20.025Z,28.85
2017-06-29T07:54:48.941Z,25.40
2017-06-29T07:57:18.609Z,26.70
2017-06-29T07:59:47.510Z,28.40
2017-06-29T08:02:16.408Z,26.02
2017-06-29T08:04:45.303Z,29.33
2017-06-29T08:07:14.191Z,25.62
2017-06-29T08:09:43.090Z,27.48
2017-06-29T08:12:11.983Z,33.78
2017-06-29T08:14:40.871Z,27.50
2017-06-29T08:17:09.773Z,29.12
2017-06-29T08:19:38.678Z,26.27
2017-06-29T08:22:08.331Z,30.75
2017-06-29T08:24:37.227Z,30.98
2017-06-29T08:27:06.140Z,26.23
2017-06-29T08:29:34.845Z,27.05
2017-06-29T08:32:03.745Z,28.42
2017-06-29T08:34:32.641Z,28.00
2017-06-29T08:37:02.317Z,29.77
2017-06-29T08:39:31.221Z,30.55
2017-06-29T08:42:00.125Z,26.55
2017-06-29T08:44:29.037Z,30.48
2017-06-29T08:46:57.938Z,28.48
2017-06-29T08:49:26.842Z,27.42
2017-06-29T08:51:55.732Z,26.55
2017-06-29T08:54:24.602Z,27.98
2017-06-29T08:56:54.268Z,28.38
2017-06-29T08:59:23.169Z,27.70
2017-06-29T09:01:51.886Z,26.37
2017-06-29T09:04:20.771Z,25.85
2017-06-29T09:06:50.488Z,25.60
2017-06-29T09:09:19.380Z,25.10
2017-06-29T09:11:48.269Z,25.60
2017-06-29T09:14:17.934Z,22.42
2017-06-29T09:16:46.847Z,24.08
2017-06-29T09:19:15.761Z,25.37
2017-06-29T09:21:45.424Z,23.60
2017-06-29T09:24:14.332Z,24.02
2017-06-29T09:26:43.253Z,23.02
2017-06-29T09:29:13.147Z,24.25
2017-06-29T09:31:42.055Z,19.80
2017-06-29T09:34:10.936Z,18.60
2017-06-29T09:36:39.842Z,19.75
2017-06-29T09:39:08.748Z,16.77
2017-06-29T09:41:37.653Z,17.77
2017-06-29T09:44:06.560Z,14.98
2017-06-29T09:46:35.460Z,13.75
2017-06-29T09:49:04.334Z,12.63
2017-06-29T09:51:33.241Z,16.00
2017-06-29T09:54:02.139Z,12.35
2017-06-29T09:56:31.041Z,18.75
2017-06-29T09:58:59.935Z,12.02
2017-06-29T10:01:28.833Z,25.08
2017-06-29T10:03:57.737Z,16.85
2017-06-29T10:06:26.628Z,11.40
2017-06-29T10:08:55.925Z,15.25
2017-06-29T10:11:24.882Z,13.45
2017-06-29T10:13:53.788Z,13.23
2017-06-29T10:16:22.684Z,11.88
2017-06-29T10:18:51.579Z,12.73
2017-06-29T10:21:20.243Z,12.65
2017-06-29T10:23:49.142Z,13.98
2017-06-29T10:26:18.047Z,12.15
2017-06-29T10:28:46.755Z,17.75
2017-06-29T10:31:15.647Z,14.48
2017-06-29T10:33:44.553Z,15.40
2017-06-29T10:36:14.227Z,13.23
2017-06-29T10:38:43.123Z,14.13
2017-06-29T10:41:12.028Z,20.50
2017-06-29T10:43:40.921Z,13.62
2017-06-29T10:46:09.829Z,16.60
2017-06-29T10:48:38.768Z,17.42
2017-06-29T10:51:07.669Z,17.27
2017-06-29T10:53:36.574Z,15.77
2017-06-29T10:56:05.481Z,16.75
2017-06-29T10:58:34.376Z,17.45
2017-06-29T11:01:03.296Z,20.05
2017-06-29T11:03:32.208Z,21.50
2017-06-29T11:06:01.129Z,21.52
2017-06-29T11:08:30.025Z,22.60
2017-06-29T11:10:58.932Z,23.65
2017-06-29T11:13:27.829Z,25.65
2017-06-29T11:15:56.740Z,23.95
2017-06-29T11:18:25.642Z,26.95
2017-06-29T11:20:54.559Z,25.23
2017-06-29T11:23:23.457Z,28.85
2017-06-29T11:25:52.357Z,28.45
2017-06-29T11:28:21.257Z,30.75
2017-06-29T11:30:50.157Z,26.98
2017-06-29T11:33:19.057Z,26.48
2017-06-29T11:35:47.971Z,28.50
2017-06-29T11:38:16.595Z,29.08
2017-06-29T11:40:45.496Z,26.35
2017-06-29T11:43:14.397Z,27.87
2017-06-29T11:45:43.293Z,26.48
2017-06-29T11:48:12.168Z,29.25
2017-06-29T11:50:41.057Z,26.83
2017-06-29T11:53:09.952Z,27.00
2017-06-29T11:55:38.852Z,27.08
2017-06-29T11:58:07.753Z,29.65
2017-06-29T12:00:36.300Z,26.90
2017-06-29T12:03:05.191Z,27.80
2017-06-29T12:05:34.083Z,28.15
2017-06-29T12:08:02.981Z,25.02
2017-06-29T12:10:31.867Z,28.23
2017-06-29T12:13:00.760Z,23.70
2017-06-29T12:15:29.647Z,22.30
2017-06-29T12:17:58.554Z,20.73
2017-06-29T12:20:27.446Z,20.65
2017-06-29T12:22:56.297Z,19.98
2017-06-29T12:25:25.193Z,21.20
2017-06-29T12:27:54.852Z,20.33
2017-06-29T12:30:23.735Z,18.30
2017-06-29T12:32:52.625Z,17.90
2017-06-29T12:35:21.553Z,18.52
2017-06-29T12:37:50.460Z,19.95
2017-06-29T12:40:19.348Z,19.12
2017-06-29T12:42:48.249Z,19.25
2017-06-29T12:45:17.149Z,17.75
2017-06-29T12:47:46.808Z,17.33
2017-06-29T12:50:15.713Z,16.92
2017-06-29T12:52:44.621Z,16.12
2017-06-29T12:55:13.508Z,19.60
2017-06-29T12:57:42.415Z,17.12
2017-06-29T13:00:10.977Z,17.62
2017-06-29T13:02:39.878Z,17.62
2017-06-29T13:05:08.787Z,16.12
2017-06-29T13:07:37.760Z,13.95
2017-06-29T13:10:06.682Z,19.55
2017-06-29T13:15:14.337Z,14.93
2017-06-29T13:17:43.322Z,12.98
2017-06-29T13:20:12.232Z,12.55
2017-06-29T13:22:41.407Z,12.75
2017-06-29T13:25:10.330Z,15.68
2017-06-29T13:27:39.252Z,13.88
2017-06-29T13:30:08.161Z,16.23
2017-06-29T13:32:37.842Z,12.37
2017-06-29T13:35:06.767Z,12.02
2017-06-29T13:37:35.678Z,11.65
2017-06-29T13:40:04.587Z,11.73
2017-06-29T13:42:33.466Z,11.57
2017-06-29T13:45:02.467Z,13.73
2017-06-29T13:47:31.372Z,10.50
2017-06-29T13:50:00.261Z,9.85
2017-06-29T13:52:29.143Z,9.07
2017-06-29T13:54:58.028Z,9.20
2017-06-29T13:57:26.938Z,12.43
2017-06-29T13:59:55.841Z,9.57
2017-06-29T14:02:24.715Z,9.55
2017-06-29T14:04:53.616Z,11.27
2017-06-29T14:07:22.526Z,10.05
2017-06-29T14:09:51.423Z,10.57
2017-06-29T14:12:20.284Z,9.75
2017-06-29T14:14:49.182Z,8.88
2017-06-29T14:17:18.086Z,8.73
2017-06-29T14:19:46.948Z,8.93
2017-06-29T14:22:15.840Z,8.50
2017-06-29T14:24:44.748Z,11.35
2017-06-29T14:27:13.649Z,7.28
2017-06-29T14:29:42.539Z,6.72
2017-06-29T14:32:11.408Z,7.25
2017-06-29T14:34:40.103Z,8.07
2017-06-29T14:37:09.012Z,13.02
2017-06-29T14:39:37.913Z,8.32
2017-06-29T14:42:06.813Z,9.10
2017-06-29T14:44:35.720Z,12.00
2017-06-29T14:47:04.604Z,9.57
2017-06-29T14:49:33.503Z,9.35
2017-06-29T14:52:02.396Z,8.68
2017-06-29T14:54:31.305Z,10.02
2017-06-29T14:57:01.042Z,11.57
2017-06-29T14:59:29.931Z,9.73
2017-06-29T15:01:58.841Z,12.65
2017-06-29T15:04:27.745Z,11.50
2017-06-29T15:06:56.645Z,10.73
2017-06-29T15:09:25.543Z,9.23
2017-06-29T15:11:54.401Z,10.40
2017-06-29T15:14:23.291Z,10.07
2017-06-29T15:16:52.152Z,8.20
2017-06-29T15:19:21.049Z,9.40
2017-06-29T15:21:49.939Z,9.30
2017-06-29T15:24:19.605Z,11.20
2017-06-29T15:26:48.505Z,6.80
2017-06-29T15:29:17.409Z,6.12
2017-06-29T15:31:46.304Z,7.50
2017-06-29T15:34:15.200Z,6.05
2017-06-29T15:36:44.088Z,9.07
2017-06-29T15:39:12.983Z,6.18
2017-06-29T15:41:41.879Z,7.72
2017-06-29T15:44:10.773Z,5.85
2017-06-29T15:46:39.678Z,6.68
2017-06-29T15:49:09.337Z,7.00
2017-06-29T15:51:38.229Z,7.47
2017-06-29T15:54:07.086Z,5.50
2017-06-29T15:56:35.971Z,5.40
2017-06-29T15:59:04.875Z,3.85
2017-06-29T16:01:33.777Z,3.85
2017-06-29T16:04:02.694Z,1.95
2017-06-29T16:06:31.602Z,3.87
2017-06-29T16:09:00.492Z,1.67
2017-06-29T16:11:29.386Z,4.80
2017-06-29T16:13:58.276Z,2.08
2017-06-29T16:16:27.182Z,2.95
2017-06-29T16:18:56.079Z,2.03
2017-06-29T16:21:24.976Z,3.55
2017-06-29T16:23:53.883Z,2.05
2017-06-29T16:26:22.778Z,1.92
2017-06-29T16:28:51.673Z,2.62
2017-06-29T16:31:20.598Z,1.70
2017-06-29T16:33:49.307Z,1.17
2017-06-29T16:36:18.210Z,3.53
2017-06-29T16:38:47.872Z,3.40
2017-06-29T16:41:16.768Z,2.08
2017-06-29T16:43:45.639Z,2.25
2017-06-29T16:46:14.535Z,2.60
2017-06-29T16:48:43.427Z,1.95
2017-06-29T16:51:12.329Z,2.42
2017-06-29T16:53:41.228Z,1.80
2017-06-29T16:56:10.133Z,1.55
2017-06-29T16:58:39.004Z,4.47
2017-06-29T17:01:07.915Z,4.50
2017-06-29T17:03:36.816Z,4.70
2017-06-29T17:06:05.703Z,2.20
2017-06-29T17:08:34.568Z,2.85
2017-06-29T17:11:03.465Z,2.40
2017-06-29T17:13:32.365Z,3.10
2017-06-29T17:16:01.260Z,1.83
2017-06-29T17:18:30.162Z,2.65
2017-06-29T17:20:59.064Z,4.32
2017-06-29T17:23:27.922Z,2.15
2017-06-29T17:25:56.793Z,5.78
2017-06-29T17:28:25.689Z,5.62
2017-06-29T17:30:54.584Z,3.25
2017-06-29T17:33:23.497Z,6.05
2017-06-29T17:35:52.392Z,3.83
2017-06-29T17:38:21.306Z,3.80
2017-06-29T17:40:50.219Z,2.87
2017-06-29T17:43:19.849Z,1.80
2017-06-29T17:45:48.736Z,5.28
2017-06-29T17:48:17.636Z,2.60
2017-06-29T17:50:46.524Z,6.47
2017-06-29T17:53:15.526Z,2.70
2017-06-29T17:55:44.434Z,4.62
2017-06-29T17:58:13.345Z,3.22
2017-06-29T18:00:42.239Z,4.03
2017-06-29T18:03:11.192Z,2.67
2017-06-29T18:05:40.089Z,2.53
2017-06-29T18:08:08.862Z,3.05
2017-06-29T18:10:37.758Z,3.50
2017-06-29T18:13:06.619Z,3.33
2017-06-29T18:15:35.537Z,2.30
2017-06-29T18:18:04.439Z,2.35
2017-06-29T18:20:33.336Z,2.33
2017-06-29T18:23:02.233Z,2.42
2017-06-29T18:25:31.144Z,2.55
2017-06-29T18:28:00.041Z,4.00
2017-06-29T18:30:28.954Z,5.32
2017-06-29T18:32:57.862Z,3.12
2017-06-29T18:35:26.724Z,2.53
2017-06-29T18:37:55.625Z,2.33
2017-06-29T18:40:24.533Z,2.62
2017-06-29T18:42:53.420Z,7.97
2017-06-29T18:45:23.093Z,4.57
2017-06-29T18:47:51.984Z,2.70
2017-06-29T18:50:22.361Z,3.65
2017-06-29T18:52:51.264Z,5.60
2017-06-29T18:55:20.166Z,2.80
2017-06-29T18:57:49.069Z,4.25
2017-06-29T19:00:17.978Z,2.20
2017-06-29T19:02:46.888Z,1.83
2017-06-29T19:05:15.775Z,2.58
2017-06-29T19:07:44.701Z,2.62
2017-06-29T19:10:14.377Z,2.00
2017-06-29T19:12:43.088Z,2.35
2017-06-29T19:15:12.068Z,4.90
2017-06-29T19:17:40.964Z,3.80
2017-06-29T19:20:09.861Z,2.20
2017-06-29T19:22:38.756Z,7.85
2017-06-29T19:25:07.662Z,2.03
2017-06-29T19:27:37.334Z,2.17
2017-06-29T19:30:06.308Z,2.25
2017-06-29T19:32:35.226Z,2.90
2017-06-29T19:35:04.227Z,2.17
2017-06-29T19:37:33.145Z,3.12
2017-06-29T19:40:02.051Z,1.83
2017-06-29T19:42:30.965Z,4.55
2017-06-29T19:44:59.852Z,8.82
2017-06-29T19:47:28.764Z,2.10
2017-06-29T19:49:58.457Z,1.90
2017-06-29T19:52:27.353Z,3.67
2017-06-29T19:54:56.262Z,2.80
2017-06-29T19:57:25.156Z,2.40
2017-06-29T19:59:54.061Z,2.15
2017-06-29T20:02:22.967Z,2.65
2017-06-29T20:04:51.869Z,2.37
2017-06-29T20:07:21.554Z,2.03
2017-06-29T20:09:50.456Z,2.78
2017-06-29T20:12:19.347Z,1.80
2017-06-29T20:14:48.250Z,2.30
2017-06-29T20:17:17.144Z,1.80
2017-06-29T20:19:46.816Z,3.72
2017-06-29T20:22:15.730Z,2.50
2017-06-29T20:24:44.656Z,2.62
2017-06-29T20:27:13.548Z,3.67
2017-06-29T20:29:42.459Z,2.05
2017-06-29T20:32:11.313Z,2.62
2017-06-29T20:34:40.228Z,2.25
2017-06-29T20:37:09.140Z,2.37
2017-06-29T20:39:38.047Z,2.33
2017-06-29T20:42:06.962Z,2.12
2017-06-29T20:44:35.856Z,4.25
2017-06-29T20:47:04.748Z,3.97
2017-06-29T20:49:33.664Z,2.17
2017-06-29T20:52:03.404Z,2.85
2017-06-29T20:54:32.295Z,9.20
2017-06-29T20:57:01.181Z,6.53
2017-06-29T20:59:30.084Z,2.35
2017-06-29T21:01:58.992Z,2.85
2017-06-29T21:04:27.901Z,5.07
2017-06-29T21:06:56.769Z,3.40
2017-06-29T21:09:25.689Z,3.22
2017-06-29T21:11:54.576Z,5.20
2017-06-29T21:14:23.467Z,2.65
2017-06-29T21:16:52.378Z,4.95
2017-06-29T21:19:21.267Z,3.42
2017-06-29T21:21:50.169Z,2.30
2017-06-29T21:24:19.077Z,6.50
2017-06-29T21:26:47.986Z,1.92
2017-06-29T21:29:16.858Z,3.90
2017-06-29T21:31:45.771Z,3.85
2017-06-29T21:34:14.677Z,3.50
2017-06-29T21:36:43.567Z,3.10
2017-06-29T21:39:12.275Z,3.33
2017-06-29T21:41:41.183Z,2.22
2017-06-29T21:44:09.905Z,3.03
2017-06-29T21:46:38.808Z,2.62
2017-06-29T21:49:07.702Z,2.33
2017-06-29T21:51:36.612Z,3.10
2017-06-29T21:54:05.517Z,2.17
2017-06-29T21:56:34.422Z,8.82
2017-06-29T21:59:03.292Z,3.67
2017-06-29T22:01:32.201Z,2.90
2017-06-29T22:04:01.102Z,2.97
2017-06-29T22:06:30.006Z,2.60
2017-06-29T22:08:58.883Z,6.53
2017-06-29T22:11:27.768Z,1.80
2017-06-29T22:13:56.660Z,3.72
2017-06-29T22:16:25.545Z,4.25
2017-06-29T22:18:54.672Z,2.92
2017-06-29T22:21:23.573Z,22.17
2017-06-29T22:23:53.231Z,2.20
2017-06-29T22:26:22.121Z,3.58
2017-06-29T22:28:50.972Z,3.25
2017-06-29T22:31:20.586Z,2.50
2017-06-29T22:33:49.473Z,4.28
2017-06-29T22:36:19.116Z,2.40
2017-06-29T22:38:47.993Z,2.62
2017-06-29T22:41:16.869Z,2.10
2017-06-29T22:43:46.521Z,4.30
2017-06-29T22:46:15.403Z,5.97
2017-06-29T22:48:44.288Z,2.67
2017-06-29T22:51:13.190Z,4.95
2017-06-29T22:53:42.077Z,4.07
2017-06-29T22:56:10.962Z,2.47
2017-06-29T22:58:39.853Z,4.85
2017-06-29T23:01:09.035Z,3.55
2017-06-29T23:03:37.932Z,3.87
2017-06-29T23:06:06.815Z,4.85
2017-06-29T23:08:35.672Z,3.42
2017-06-29T23:11:05.475Z,4.05
2017-06-29T23:13:34.359Z,3.12
2017-06-29T23:16:03.253Z,5.15
2017-06-29T23:18:32.137Z,4.68
2017-06-29T23:21:01.020Z,10.48
2017-06-29T23:23:29.892Z,4.50
2017-06-29T23:25:58.773Z,4.05
2017-06-29T23:28:27.652Z,4.30
2017-06-29T23:30:57.298Z,4.05
2017-06-29T23:33:26.178Z,5.03
2017-06-29T23:35:55.069Z,4.32
2017-06-29T23:38:23.959Z,5.10
2017-06-29T23:40:52.836Z,3.45
2017-06-29T23:43:21.721Z,6.95
2017-06-29T23:45:50.623Z,10.15
2017-06-29T23:48:20.259Z,4.93
2017-06-29T23:50:49.149Z,6.87
2017-06-29T23:53:18.033Z,3.92
2017-06-29T23:55:46.904Z,7.05
2017-06-29T23:58:16.544Z,5.70
